sensor_id;sensor_type;location;lat;lon;timestamp;P1;durP1;ratioP1;P2;durP2;ratioP2
59273;SDS011;45044;41.572;24.730;2022-10-04T00:01:00;6.97;;;3.00;;
59273;SDS011;45044;41.572;24.730;2022-10-04T00:03:33;6.03;;;3.20;;
59273;SDS011;45044;41.572;24.730;2022-10-04T00:13:56;3.95;;;2.28;;
59273;SDS011;45044;41.572;24.730;2022-10-04T00:16:35;7.65;;;3.72;;
59273;SDS011;45044;41.572;24.730;2022-10-04T00:29:37;6.07;;;3.65;;
59273;SDS011;45044;41.572;24.730;2022-10-04T00:34:44;5.20;;;2.33;;
59273;SDS011;45044;41.572;24.730;2022-10-04T00:37:16;3.38;;;1.80;;
59273;SDS011;45044;41.572;24.730;2022-10-04T00:39:45;4.60;;;2.40;;
59273;SDS011;45044;41.572;24.730;2022-10-04T00:45:05;2.92;;;1.70;;
59273;SDS011;45044;41.572;24.730;2022-10-04T00:53:10;6.90;;;2.55;;
59273;SDS011;45044;41.572;24.730;2022-10-04T00:55:53;4.45;;;2.58;;
59273;SDS011;45044;41.572;24.730;2022-10-04T00:58:26;3.47;;;2.15;;
59273;SDS011;45044;41.572;24.730;2022-10-04T01:00:58;4.30;;;2.38;;
59273;SDS011;45044;41.572;24.730;2022-10-04T01:03:29;3.28;;;1.75;;
59273;SDS011;45044;41.572;24.730;2022-10-04T01:06:00;1.60;;;1.27;;
59273;SDS011;45044;41.572;24.730;2022-10-04T01:08:35;6.38;;;2.03;;
59273;SDS011;45044;41.572;24.730;2022-10-04T01:11:12;4.13;;;2.70;;
59273;SDS011;45044;41.572;24.730;2022-10-04T01:16:33;3.63;;;1.98;;
59273;SDS011;45044;41.572;24.730;2022-10-04T01:19:18;3.05;;;1.70;;
59273;SDS011;45044;41.572;24.730;2022-10-04T01:24:43;2.30;;;1.27;;
59273;SDS011;45044;41.572;24.730;2022-10-04T01:30:14;3.08;;;1.90;;
59273;SDS011;45044;41.572;24.730;2022-10-04T01:35:11;5.82;;;2.13;;
59273;SDS011;45044;41.572;24.730;2022-10-04T01:37:39;5.03;;;3.05;;
59273;SDS011;45044;41.572;24.730;2022-10-04T01:40:07;5.00;;;2.80;;
59273;SDS011;45044;41.572;24.730;2022-10-04T01:42:37;5.78;;;2.78;;
59273;SDS011;45044;41.572;24.730;2022-10-04T01:48:00;2.58;;;1.10;;
59273;SDS011;45044;41.572;24.730;2022-10-04T01:53:20;3.00;;;1.20;;
59273;SDS011;45044;41.572;24.730;2022-10-04T01:55:54;2.00;;;1.25;;
59273;SDS011;45044;41.572;24.730;2022-10-04T01:58:47;4.13;;;1.48;;
59273;SDS011;45044;41.572;24.730;2022-10-04T02:01:20;2.47;;;1.40;;
59273;SDS011;45044;41.572;24.730;2022-10-04T02:04:03;2.03;;;0.75;;
59273;SDS011;45044;41.572;24.730;2022-10-04T02:06:36;2.40;;;0.90;;
59273;SDS011;45044;41.572;24.730;2022-10-04T02:09:09;1.63;;;1.00;;
59273;SDS011;45044;41.572;24.730;2022-10-04T02:11:40;1.73;;;1.00;;
59273;SDS011;45044;41.572;24.730;2022-10-04T02:14:13;4.40;;;2.05;;
59273;SDS011;45044;41.572;24.730;2022-10-04T02:16:44;5.68;;;2.33;;
59273;SDS011;45044;41.572;24.730;2022-10-04T02:19:13;5.28;;;2.17;;
59273;SDS011;45044;41.572;24.730;2022-10-04T02:21:40;1.35;;;0.90;;
59273;SDS011;45044;41.572;24.730;2022-10-04T02:24:09;2.58;;;1.30;;
59273;SDS011;45044;41.572;24.730;2022-10-04T02:26:37;2.08;;;1.15;;
59273;SDS011;45044;41.572;24.730;2022-10-04T02:29:04;2.55;;;1.13;;
59273;SDS011;45044;41.572;24.730;2022-10-04T02:31:30;1.88;;;1.10;;
59273;SDS011;45044;41.572;24.730;2022-10-04T02:34:17;3.38;;;1.30;;
59273;SDS011;45044;41.572;24.730;2022-10-04T02:36:44;2.40;;;1.10;;
59273;SDS011;45044;41.572;24.730;2022-10-04T02:39:21;1.58;;;0.90;;
59273;SDS011;45044;41.572;24.730;2022-10-04T02:41:56;2.25;;;1.20;;
59273;SDS011;45044;41.572;24.730;2022-10-04T02:44:40;2.28;;;1.00;;
59273;SDS011;45044;41.572;24.730;2022-10-04T02:47:29;1.50;;;0.82;;
59273;SDS011;45044;41.572;24.730;2022-10-04T02:50:08;1.90;;;1.40;;
59273;SDS011;45044;41.572;24.730;2022-10-04T02:52:47;1.55;;;1.25;;
59273;SDS011;45044;41.572;24.730;2022-10-04T02:55:30;2.55;;;1.40;;
59273;SDS011;45044;41.572;24.730;2022-10-04T02:57:58;1.33;;;1.02;;
59273;SDS011;45044;41.572;24.730;2022-10-04T03:00:26;1.30;;;0.93;;
59273;SDS011;45044;41.572;24.730;2022-10-04T03:05:52;1.95;;;0.75;;
59273;SDS011;45044;41.572;24.730;2022-10-04T03:11:15;2.03;;;1.30;;
59273;SDS011;45044;41.572;24.730;2022-10-04T03:13:47;2.25;;;1.00;;
59273;SDS011;45044;41.572;24.730;2022-10-04T03:16:18;1.63;;;0.95;;
59273;SDS011;45044;41.572;24.730;2022-10-04T03:18:46;2.33;;;0.80;;
59273;SDS011;45044;41.572;24.730;2022-10-04T03:21:16;2.28;;;0.80;;
59273;SDS011;45044;41.572;24.730;2022-10-04T03:23:45;4.68;;;2.17;;
59273;SDS011;45044;41.572;24.730;2022-10-04T03:28:52;1.67;;;1.08;;
59273;SDS011;45044;41.572;24.730;2022-10-04T03:31:19;3.05;;;1.30;;
59273;SDS011;45044;41.572;24.730;2022-10-04T03:33:46;1.73;;;1.17;;
59273;SDS011;45044;41.572;24.730;2022-10-04T03:36:15;2.75;;;0.93;;
59273;SDS011;45044;41.572;24.730;2022-10-04T03:38:44;1.73;;;1.02;;
59273;SDS011;45044;41.572;24.730;2022-10-04T03:41:13;1.80;;;1.17;;
59273;SDS011;45044;41.572;24.730;2022-10-04T03:43:43;3.40;;;1.80;;
59273;SDS011;45044;41.572;24.730;2022-10-04T03:46:11;7.28;;;2.72;;
59273;SDS011;45044;41.572;24.730;2022-10-04T03:48:41;5.95;;;2.47;;
59273;SDS011;45044;41.572;24.730;2022-10-04T03:51:13;5.50;;;2.10;;
59273;SDS011;45044;41.572;24.730;2022-10-04T03:53:43;5.35;;;2.63;;
59273;SDS011;45044;41.572;24.730;2022-10-04T03:56:15;4.72;;;2.22;;
59273;SDS011;45044;41.572;24.730;2022-10-04T03:58:45;3.08;;;1.27;;
59273;SDS011;45044;41.572;24.730;2022-10-04T04:06:51;7.70;;;3.42;;
59273;SDS011;45044;41.572;24.730;2022-10-04T04:09:23;6.55;;;2.85;;
59273;SDS011;45044;41.572;24.730;2022-10-04T04:11:56;4.50;;;2.80;;
59273;SDS011;45044;41.572;24.730;2022-10-04T04:14:25;7.15;;;3.30;;
59273;SDS011;45044;41.572;24.730;2022-10-04T04:16:53;6.82;;;3.42;;
59273;SDS011;45044;41.572;24.730;2022-10-04T04:19:40;5.32;;;2.90;;
59273;SDS011;45044;41.572;24.730;2022-10-04T04:22:10;6.68;;;2.78;;
59273;SDS011;45044;41.572;24.730;2022-10-04T04:24:42;9.00;;;3.95;;
59273;SDS011;45044;41.572;24.730;2022-10-04T04:27:09;8.52;;;3.60;;
59273;SDS011;45044;41.572;24.730;2022-10-04T04:29:43;6.93;;;3.97;;
59273;SDS011;45044;41.572;24.730;2022-10-04T04:32:24;7.97;;;4.18;;
59273;SDS011;45044;41.572;24.730;2022-10-04T04:34:59;6.35;;;3.60;;
59273;SDS011;45044;41.572;24.730;2022-10-04T04:37:35;6.15;;;3.92;;
59273;SDS011;45044;41.572;24.730;2022-10-04T04:40:10;4.32;;;2.58;;
59273;SDS011;45044;41.572;24.730;2022-10-04T04:42:49;4.50;;;2.58;;
59273;SDS011;45044;41.572;24.730;2022-10-04T04:45:18;8.48;;;4.45;;
59273;SDS011;45044;41.572;24.730;2022-10-04T04:47:49;7.60;;;3.50;;
59273;SDS011;45044;41.572;24.730;2022-10-04T04:52:58;3.65;;;2.50;;
59273;SDS011;45044;41.572;24.730;2022-10-04T04:55:40;3.40;;;2.17;;
59273;SDS011;45044;41.572;24.730;2022-10-04T04:58:35;4.45;;;2.55;;
59273;SDS011;45044;41.572;24.730;2022-10-04T05:03:41;11.25;;;5.85;;
59273;SDS011;45044;41.572;24.730;2022-10-04T05:06:23;10.63;;;5.90;;
59273;SDS011;45044;41.572;24.730;2022-10-04T05:08:51;10.20;;;5.43;;
59273;SDS011;45044;41.572;24.730;2022-10-04T05:11:18;8.73;;;4.82;;
59273;SDS011;45044;41.572;24.730;2022-10-04T05:13:48;6.63;;;3.03;;
59273;SDS011;45044;41.572;24.730;2022-10-04T05:16:41;5.20;;;3.30;;
59273;SDS011;45044;41.572;24.730;2022-10-04T05:19:14;6.60;;;3.33;;
59273;SDS011;45044;41.572;24.730;2022-10-04T05:21:47;7.45;;;4.00;;
59273;SDS011;45044;41.572;24.730;2022-10-04T05:24:20;7.72;;;4.30;;
59273;SDS011;45044;41.572;24.730;2022-10-04T05:26:52;3.60;;;2.10;;
59273;SDS011;45044;41.572;24.730;2022-10-04T05:29:23;5.65;;;3.22;;
59273;SDS011;45044;41.572;24.730;2022-10-04T05:31:59;7.70;;;3.17;;
59273;SDS011;45044;41.572;24.730;2022-10-04T05:34:30;8.90;;;5.10;;
59273;SDS011;45044;41.572;24.730;2022-10-04T05:39:49;5.72;;;3.13;;
59273;SDS011;45044;41.572;24.730;2022-10-04T05:45:18;5.20;;;2.60;;
59273;SDS011;45044;41.572;24.730;2022-10-04T05:47:45;4.00;;;2.38;;
59273;SDS011;45044;41.572;24.730;2022-10-04T05:50:34;4.47;;;2.25;;
59273;SDS011;45044;41.572;24.730;2022-10-04T05:53:27;2.47;;;1.40;;
59273;SDS011;45044;41.572;24.730;2022-10-04T06:24:43;1.73;;;0.82;;
59273;SDS011;45044;41.572;24.730;2022-10-04T06:27:34;3.10;;;0.90;;
59273;SDS011;45044;41.572;24.730;2022-10-04T06:30:16;1.20;;;0.70;;
59273;SDS011;45044;41.572;24.730;2022-10-04T06:35:24;1.63;;;0.80;;
59273;SDS011;45044;41.572;24.730;2022-10-04T06:41:31;2.25;;;1.13;;
59273;SDS011;45044;41.572;24.730;2022-10-04T06:46:57;3.78;;;0.88;;
59273;SDS011;45044;41.572;24.730;2022-10-04T06:52:22;2.80;;;1.13;;
59273;SDS011;45044;41.572;24.730;2022-10-04T07:00:26;0.73;;;0.65;;
59273;SDS011;45044;41.572;24.730;2022-10-04T07:03:03;1.73;;;0.82;;
59273;SDS011;45044;41.572;24.730;2022-10-04T07:05:59;6.95;;;2.53;;
59273;SDS011;45044;41.572;24.730;2022-10-04T07:08:35;4.05;;;1.30;;
59273;SDS011;45044;41.572;24.730;2022-10-04T07:16:31;3.10;;;1.20;;
59273;SDS011;45044;41.572;24.730;2022-10-04T07:19:06;1.88;;;0.93;;
59273;SDS011;45044;41.572;24.730;2022-10-04T07:21:52;1.10;;;0.70;;
59273;SDS011;45044;41.572;24.730;2022-10-04T07:24:23;1.20;;;0.70;;
59273;SDS011;45044;41.572;24.730;2022-10-04T07:27:07;2.25;;;0.60;;
59273;SDS011;45044;41.572;24.730;2022-10-04T07:29:38;1.25;;;0.70;;
59273;SDS011;45044;41.572;24.730;2022-10-04T07:32:15;2.08;;;0.80;;
59273;SDS011;45044;41.572;24.730;2022-10-04T07:35:01;4.18;;;1.08;;
59273;SDS011;45044;41.572;24.730;2022-10-04T07:40:24;2.85;;;0.85;;
59273;SDS011;45044;41.572;24.730;2022-10-04T07:42:56;2.75;;;0.95;;
59273;SDS011;45044;41.572;24.730;2022-10-04T07:45:39;3.05;;;1.60;;
59273;SDS011;45044;41.572;24.730;2022-10-04T07:48:12;1.70;;;0.82;;
59273;SDS011;45044;41.572;24.730;2022-10-04T07:51:04;2.25;;;0.82;;
59273;SDS011;45044;41.572;24.730;2022-10-04T07:56:59;2.13;;;1.00;;
59273;SDS011;45044;41.572;24.730;2022-10-04T07:59:56;2.40;;;1.10;;
59273;SDS011;45044;41.572;24.730;2022-10-04T08:05:36;1.85;;;0.68;;
59273;SDS011;45044;41.572;24.730;2022-10-04T08:25:21;1.45;;;0.90;;
59273;SDS011;45044;41.572;24.730;2022-10-04T08:42:25;1.40;;;0.70;;
59273;SDS011;45044;41.572;24.730;2022-10-04T08:48:09;1.23;;;1.00;;
59273;SDS011;45044;41.572;24.730;2022-10-04T09:11:28;2.13;;;0.70;;
59273;SDS011;45044;41.572;24.730;2022-10-04T09:16:46;2.55;;;1.63;;
59273;SDS011;45044;41.572;24.730;2022-10-04T09:22:17;6.60;;;1.92;;
59273;SDS011;45044;41.572;24.730;2022-10-04T09:25:05;6.75;;;2.53;;
59273;SDS011;45044;41.572;24.730;2022-10-04T09:28:13;1.65;;;0.95;;
59273;SDS011;45044;41.572;24.730;2022-10-04T09:36:22;15.88;;;12.30;;
59273;SDS011;45044;41.572;24.730;2022-10-04T09:53:39;0.90;;;0.75;;
59273;SDS011;45044;41.572;24.730;2022-10-04T10:07:53;0.95;;;0.85;;
59273;SDS011;45044;41.572;24.730;2022-10-04T10:56:49;1.27;;;0.80;;
59273;SDS011;45044;41.572;24.730;2022-10-04T11:04:37;1.15;;;0.70;;
59273;SDS011;45044;41.572;24.730;2022-10-04T11:16:18;1.67;;;1.10;;
59273;SDS011;45044;41.572;24.730;2022-10-04T11:30:02;5.43;;;1.02;;
59273;SDS011;45044;41.572;24.730;2022-10-04T11:35:45;4.00;;;1.15;;
59273;SDS011;45044;41.572;24.730;2022-10-04T11:38:32;2.50;;;1.00;;
59273;SDS011;45044;41.572;24.730;2022-10-04T11:46:40;2.55;;;0.85;;
59273;SDS011;45044;41.572;24.730;2022-10-04T11:49:15;2.00;;;0.82;;
59273;SDS011;45044;41.572;24.730;2022-10-04T11:52:08;1.08;;;0.57;;
59273;SDS011;45044;41.572;24.730;2022-10-04T11:54:56;1.80;;;0.80;;
59273;SDS011;45044;41.572;24.730;2022-10-04T11:57:31;1.80;;;1.00;;
59273;SDS011;45044;41.572;24.730;2022-10-04T12:19:24;2.40;;;0.90;;
59273;SDS011;45044;41.572;24.730;2022-10-04T12:21:58;1.40;;;1.10;;
59273;SDS011;45044;41.572;24.730;2022-10-04T12:41:46;1.10;;;0.70;;
59273;SDS011;45044;41.572;24.730;2022-10-04T12:54:45;2.55;;;1.38;;
59273;SDS011;45044;41.572;24.730;2022-10-04T12:57:31;2.92;;;1.63;;
59273;SDS011;45044;41.572;24.730;2022-10-04T13:00:19;1.83;;;0.90;;
59273;SDS011;45044;41.572;24.730;2022-10-04T13:03:03;1.20;;;1.03;;
59273;SDS011;45044;41.572;24.730;2022-10-04T13:19:34;2.25;;;0.80;;
59273;SDS011;45044;41.572;24.730;2022-10-04T13:31:01;1.65;;;0.90;;
59273;SDS011;45044;41.572;24.730;2022-10-04T13:38:38;7.43;;;3.58;;
59273;SDS011;45044;41.572;24.730;2022-10-04T13:44:28;3.58;;;1.90;;
59273;SDS011;45044;41.572;24.730;2022-10-04T13:52:58;2.50;;;1.30;;
59273;SDS011;45044;41.572;24.730;2022-10-04T14:02:15;3.05;;;1.05;;
59273;SDS011;45044;41.572;24.730;2022-10-04T14:19:31;1.42;;;1.02;;
59273;SDS011;45044;41.572;24.730;2022-10-04T14:46:36;3.77;;;1.60;;
59273;SDS011;45044;41.572;24.730;2022-10-04T14:57:09;1.48;;;1.20;;
59273;SDS011;45044;41.572;24.730;2022-10-04T15:05:36;3.22;;;1.60;;
59273;SDS011;45044;41.572;24.730;2022-10-04T15:08:36;3.60;;;1.83;;
59273;SDS011;45044;41.572;24.730;2022-10-04T15:11:07;4.72;;;2.20;;
59273;SDS011;45044;41.572;24.730;2022-10-04T15:14:41;4.00;;;2.10;;
59273;SDS011;45044;41.572;24.730;2022-10-04T15:19:28;3.60;;;2.55;;
59273;SDS011;45044;41.572;24.730;2022-10-04T15:24:29;2.83;;;1.90;;
59273;SDS011;45044;41.572;24.730;2022-10-04T15:41:25;7.22;;;3.92;;
59273;SDS011;45044;41.572;24.730;2022-10-04T15:46:40;9.90;;;6.75;;
59273;SDS011;45044;41.572;24.730;2022-10-04T15:50:53;13.65;;;8.13;;
59273;SDS011;45044;41.572;24.730;2022-10-04T15:52:48;6.15;;;3.55;;
59273;SDS011;45044;41.572;24.730;2022-10-04T16:04:21;7.93;;;5.03;;
59273;SDS011;45044;41.572;24.730;2022-10-04T16:06:51;12.25;;;8.13;;
59273;SDS011;45044;41.572;24.730;2022-10-04T16:09:40;16.10;;;10.85;;
59273;SDS011;45044;41.572;24.730;2022-10-04T16:12:54;20.27;;;13.65;;
59273;SDS011;45044;41.572;24.730;2022-10-04T16:15:35;20.58;;;14.85;;
59273;SDS011;45044;41.572;24.730;2022-10-04T16:23:32;19.35;;;14.43;;
59273;SDS011;45044;41.572;24.730;2022-10-04T16:31:23;12.10;;;8.55;;
59273;SDS011;45044;41.572;24.730;2022-10-04T16:36:59;36.17;;;20.98;;
59273;SDS011;45044;41.572;24.730;2022-10-04T16:39:36;48.10;;;27.88;;
59273;SDS011;45044;41.572;24.730;2022-10-04T16:42:31;47.55;;;27.27;;
59273;SDS011;45044;41.572;24.730;2022-10-04T16:45:27;26.23;;;17.10;;
59273;SDS011;45044;41.572;24.730;2022-10-04T16:51:03;36.35;;;26.08;;
59273;SDS011;45044;41.572;24.730;2022-10-04T16:53:48;44.53;;;30.52;;
59273;SDS011;45044;41.572;24.730;2022-10-04T17:10:33;17.23;;;13.55;;
59273;SDS011;45044;41.572;24.730;2022-10-04T17:13:24;18.00;;;13.32;;
59273;SDS011;45044;41.572;24.730;2022-10-04T17:19:07;17.98;;;12.05;;
59273;SDS011;45044;41.572;24.730;2022-10-04T17:26:54;23.33;;;16.45;;
59273;SDS011;45044;41.572;24.730;2022-10-04T17:40:47;28.20;;;18.13;;
59273;SDS011;45044;41.572;24.730;2022-10-04T17:48:30;24.77;;;17.52;;
59273;SDS011;45044;41.572;24.730;2022-10-04T18:05:13;23.67;;;14.48;;
59273;SDS011;45044;41.572;24.730;2022-10-04T18:07:47;26.55;;;20.50;;
59273;SDS011;45044;41.572;24.730;2022-10-04T18:10:32;29.38;;;19.75;;
59273;SDS011;45044;41.572;24.730;2022-10-04T18:13:24;29.23;;;17.17;;
59273;SDS011;45044;41.572;24.730;2022-10-04T18:18:40;19.02;;;11.07;;
59273;SDS011;45044;41.572;24.730;2022-10-04T18:23:49;21.92;;;15.27;;
59273;SDS011;45044;41.572;24.730;2022-10-04T18:26:36;18.98;;;12.32;;
59273;SDS011;45044;41.572;24.730;2022-10-04T18:29:37;12.13;;;7.70;;
59273;SDS011;45044;41.572;24.730;2022-10-04T18:32:29;10.77;;;7.70;;
59273;SDS011;45044;41.572;24.730;2022-10-04T18:34:58;11.70;;;7.40;;
59273;SDS011;45044;41.572;24.730;2022-10-04T18:39:54;17.65;;;11.45;;
59273;SDS011;45044;41.572;24.730;2022-10-04T18:42:36;17.45;;;11.27;;
59273;SDS011;45044;41.572;24.730;2022-10-04T18:48:34;20.15;;;14.15;;
59273;SDS011;45044;41.572;24.730;2022-10-04T18:51:32;19.20;;;12.32;;
59273;SDS011;45044;41.572;24.730;2022-10-04T18:56:39;22.52;;;16.33;;
59273;SDS011;45044;41.572;24.730;2022-10-04T19:05:15;40.58;;;23.58;;
59273;SDS011;45044;41.572;24.730;2022-10-04T19:10:58;31.08;;;19.58;;
59273;SDS011;45044;41.572;24.730;2022-10-04T19:26:49;20.88;;;13.95;;
59273;SDS011;45044;41.572;24.730;2022-10-04T19:35:08;21.23;;;15.23;;
59273;SDS011;45044;41.572;24.730;2022-10-04T19:48:19;18.77;;;13.15;;
59273;SDS011;45044;41.572;24.730;2022-10-04T19:50:59;19.27;;;13.65;;
59273;SDS011;45044;41.572;24.730;2022-10-04T19:53:51;20.55;;;14.82;;
59273;SDS011;45044;41.572;24.730;2022-10-04T19:56:23;20.58;;;15.05;;
59273;SDS011;45044;41.572;24.730;2022-10-04T19:59:06;20.08;;;14.02;;
59273;SDS011;45044;41.572;24.730;2022-10-04T20:01:41;22.13;;;13.17;;
59273;SDS011;45044;41.572;24.730;2022-10-04T20:04:14;23.35;;;15.65;;
59273;SDS011;45044;41.572;24.730;2022-10-04T20:12:26;20.27;;;14.07;;
59273;SDS011;45044;41.572;24.730;2022-10-04T20:15:40;20.60;;;13.80;;
59273;SDS011;45044;41.572;24.730;2022-10-04T20:17:53;16.80;;;12.15;;
59273;SDS011;45044;41.572;24.730;2022-10-04T20:23:09;17.90;;;11.93;;
59273;SDS011;45044;41.572;24.730;2022-10-04T20:28:36;17.75;;;11.90;;
59273;SDS011;45044;41.572;24.730;2022-10-04T20:31:06;26.02;;;17.88;;
59273;SDS011;45044;41.572;24.730;2022-10-04T20:41:43;10.55;;;6.97;;
59273;SDS011;45044;41.572;24.730;2022-10-04T20:52:58;18.70;;;12.27;;
59273;SDS011;45044;41.572;24.730;2022-10-04T20:55:29;23.23;;;13.95;;
59273;SDS011;45044;41.572;24.730;2022-10-04T21:00:56;18.35;;;11.27;;
59273;SDS011;45044;41.572;24.730;2022-10-04T21:03:25;14.07;;;8.00;;
59273;SDS011;45044;41.572;24.730;2022-10-04T21:06:25;20.38;;;13.43;;
59273;SDS011;45044;41.572;24.730;2022-10-04T21:08:44;19.05;;;12.50;;
59273;SDS011;45044;41.572;24.730;2022-10-04T21:21:56;17.27;;;11.35;;
59273;SDS011;45044;41.572;24.730;2022-10-04T21:24:32;14.88;;;10.70;;
59273;SDS011;45044;41.572;24.730;2022-10-04T21:27:02;17.13;;;10.93;;
59273;SDS011;45044;41.572;24.730;2022-10-04T21:29:31;16.95;;;11.15;;
59273;SDS011;45044;41.572;24.730;2022-10-04T21:31:57;18.13;;;11.45;;
59273;SDS011;45044;41.572;24.730;2022-10-04T21:34:25;22.83;;;13.38;;
59273;SDS011;45044;41.572;24.730;2022-10-04T21:37:12;19.05;;;12.02;;
59273;SDS011;45044;41.572;24.730;2022-10-04T21:39:39;19.50;;;11.60;;
59273;SDS011;45044;41.572;24.730;2022-10-04T21:42:06;15.02;;;9.27;;
59273;SDS011;45044;41.572;24.730;2022-10-04T21:44:33;13.60;;;9.02;;
59273;SDS011;45044;41.572;24.730;2022-10-04T21:47:00;13.80;;;9.05;;
59273;SDS011;45044;41.572;24.730;2022-10-04T21:49:27;13.55;;;7.85;;
59273;SDS011;45044;41.572;24.730;2022-10-04T21:51:54;12.15;;;7.30;;
59273;SDS011;45044;41.572;24.730;2022-10-04T21:54:21;13.05;;;8.15;;
59273;SDS011;45044;41.572;24.730;2022-10-04T21:56:48;12.07;;;8.00;;
59273;SDS011;45044;41.572;24.730;2022-10-04T21:59:14;14.15;;;9.07;;
59273;SDS011;45044;41.572;24.730;2022-10-04T22:01:41;11.27;;;7.75;;
59273;SDS011;45044;41.572;24.730;2022-10-04T22:04:08;16.17;;;9.77;;
59273;SDS011;45044;41.572;24.730;2022-10-04T22:06:35;10.30;;;7.60;;
59273;SDS011;45044;41.572;24.730;2022-10-04T22:09:01;9.52;;;5.78;;
59273;SDS011;45044;41.572;24.730;2022-10-04T22:11:28;11.13;;;6.88;;
59273;SDS011;45044;41.572;24.730;2022-10-04T22:13:55;11.77;;;7.00;;
59273;SDS011;45044;41.572;24.730;2022-10-04T22:16:22;10.15;;;5.78;;
59273;SDS011;45044;41.572;24.730;2022-10-04T22:18:49;11.60;;;6.93;;
59273;SDS011;45044;41.572;24.730;2022-10-04T22:21:15;10.30;;;6.57;;
59273;SDS011;45044;41.572;24.730;2022-10-04T22:23:42;12.48;;;6.68;;
59273;SDS011;45044;41.572;24.730;2022-10-04T22:26:14;10.65;;;6.38;;
59273;SDS011;45044;41.572;24.730;2022-10-04T22:28:49;8.18;;;4.72;;
59273;SDS011;45044;41.572;24.730;2022-10-04T22:33:50;9.45;;;5.53;;
59273;SDS011;45044;41.572;24.730;2022-10-04T22:36:19;10.68;;;6.10;;
59273;SDS011;45044;41.572;24.730;2022-10-04T22:38:49;9.10;;;5.40;;
59273;SDS011;45044;41.572;24.730;2022-10-04T22:41:21;11.07;;;6.20;;
59273;SDS011;45044;41.572;24.730;2022-10-04T22:43:51;9.40;;;5.65;;
59273;SDS011;45044;41.572;24.730;2022-10-04T22:46:22;10.07;;;5.55;;
59273;SDS011;45044;41.572;24.730;2022-10-04T22:48:57;7.97;;;4.93;;
59273;SDS011;45044;41.572;24.730;2022-10-04T22:51:26;7.90;;;4.72;;
59273;SDS011;45044;41.572;24.730;2022-10-04T22:53:54;7.70;;;4.28;;
59273;SDS011;45044;41.572;24.730;2022-10-04T22:56:21;7.35;;;4.40;;
59273;SDS011;45044;41.572;24.730;2022-10-04T22:58:48;7.43;;;4.53;;
59273;SDS011;45044;41.572;24.730;2022-10-04T23:01:16;6.72;;;3.67;;
59273;SDS011;45044;41.572;24.730;2022-10-04T23:03:44;8.02;;;4.07;;
59273;SDS011;45044;41.572;24.730;2022-10-04T23:06:13;5.97;;;3.72;;
59273;SDS011;45044;41.572;24.730;2022-10-04T23:08:41;6.15;;;3.78;;
59273;SDS011;45044;41.572;24.730;2022-10-04T23:11:08;7.15;;;3.33;;
59273;SDS011;45044;41.572;24.730;2022-10-04T23:13:35;6.07;;;3.78;;
59273;SDS011;45044;41.572;24.730;2022-10-04T23:16:13;9.63;;;6.20;;
59273;SDS011;45044;41.572;24.730;2022-10-04T23:18:43;9.63;;;6.40;;
59273;SDS011;45044;41.572;24.730;2022-10-04T23:21:17;8.45;;;5.50;;
59273;SDS011;45044;41.572;24.730;2022-10-04T23:23:47;7.22;;;5.03;;
59273;SDS011;45044;41.572;24.730;2022-10-04T23:26:17;6.63;;;3.80;;
59273;SDS011;45044;41.572;24.730;2022-10-04T23:28:47;7.47;;;4.25;;
59273;SDS011;45044;41.572;24.730;2022-10-04T23:31:18;6.85;;;4.05;;
59273;SDS011;45044;41.572;24.730;2022-10-04T23:33:49;8.15;;;3.90;;
59273;SDS011;45044;41.572;24.730;2022-10-04T23:36:17;6.88;;;4.22;;
59273;SDS011;45044;41.572;24.730;2022-10-04T23:38:49;6.47;;;3.47;;
59273;SDS011;45044;41.572;24.730;2022-10-04T23:41:22;6.35;;;3.60;;
59273;SDS011;45044;41.572;24.730;2022-10-04T23:43:48;5.88;;;3.80;;
59273;SDS011;45044;41.572;24.730;2022-10-04T23:46:16;7.22;;;4.05;;
59273;SDS011;45044;41.572;24.730;2022-10-04T23:48:46;6.40;;;3.60;;
59273;SDS011;45044;41.572;24.730;2022-10-04T23:51:15;7.30;;;3.85;;
59273;SDS011;45044;41.572;24.730;2022-10-04T23:53:44;7.03;;;3.55;;
59273;SDS011;45044;41.572;24.730;2022-10-04T23:56:16;6.25;;;4.03;;
59273;SDS011;45044;41.572;24.730;2022-10-04T23:58:46;6.78;;;4.07;;
